sensor_id;sensor_type;location;lat;lon;timestamp;P1;durP1;ratioP1;P2;durP2;ratioP2
36715;SDS011;22699;51.034;3.730;2022-11-20T12:18:57;7.95;;;4.15;;
36715;SDS011;22699;51.034;3.730;2022-11-20T12:37:08;4.85;;;4.00;;
36715;SDS011;22699;51.034;3.730;2022-11-20T12:40:02;7.10;;;4.72;;
36715;SDS011;22699;51.034;3.730;2022-11-20T12:43:01;8.13;;;4.80;;
36715;SDS011;22699;51.034;3.730;2022-11-20T12:49:05;9.48;;;5.03;;
36715;SDS011;22699;51.034;3.730;2022-11-20T12:51:45;5.70;;;4.13;;
36715;SDS011;22699;51.034;3.730;2022-11-20T12:54:33;8.98;;;4.70;;
36715;SDS011;22699;51.034;3.730;2022-11-20T13:05:24;7.43;;;4.32;;
36715;SDS011;22699;51.034;3.730;2022-11-20T13:07:55;4.85;;;4.45;;
36715;SDS011;22699;51.034;3.730;2022-11-20T13:13:23;5.88;;;3.63;;
36715;SDS011;22699;51.034;3.730;2022-11-20T13:18:55;4.68;;;4.18;;
36715;SDS011;22699;51.034;3.730;2022-11-20T13:21:22;6.97;;;4.07;;
36715;SDS011;22699;51.034;3.730;2022-11-20T13:24:06;7.38;;;4.45;;
36715;SDS011;22699;51.034;3.730;2022-11-20T13:29:34;3.55;;;3.20;;
36715;SDS011;22699;51.034;3.730;2022-11-20T13:32:04;4.07;;;3.65;;
36715;SDS011;22699;51.034;3.730;2022-11-20T13:34:37;5.85;;;3.83;;
36715;SDS011;22699;51.034;3.730;2022-11-20T13:37:03;4.65;;;3.42;;
36715;SDS011;22699;51.034;3.730;2022-11-20T13:42:02;5.72;;;3.88;;
36715;SDS011;22699;51.034;3.730;2022-11-20T13:44:38;4.22;;;3.72;;
36715;SDS011;22699;51.034;3.730;2022-11-20T13:47:24;4.75;;;3.92;;
36715;SDS011;22699;51.034;3.730;2022-11-20T13:49:51;4.32;;;3.55;;
36715;SDS011;22699;51.034;3.730;2022-11-20T13:54:53;4.03;;;3.40;;
36715;SDS011;22699;51.034;3.730;2022-11-20T14:00:03;4.93;;;3.38;;
36715;SDS011;22699;51.034;3.730;2022-11-20T14:02:40;5.95;;;5.10;;
36715;SDS011;22699;51.034;3.730;2022-11-20T14:05:11;6.43;;;2.67;;
36715;SDS011;22699;51.034;3.730;2022-11-20T14:07:49;4.70;;;3.25;;
36715;SDS011;22699;51.034;3.730;2022-11-20T14:10:23;3.63;;;2.80;;
36715;SDS011;22699;51.034;3.730;2022-11-20T14:12:53;4.00;;;3.22;;
36715;SDS011;22699;51.034;3.730;2022-11-20T14:17:56;4.38;;;3.15;;
36715;SDS011;22699;51.034;3.730;2022-11-20T14:20:24;7.10;;;4.70;;
36715;SDS011;22699;51.034;3.730;2022-11-20T14:22:53;8.45;;;7.20;;
36715;SDS011;22699;51.034;3.730;2022-11-20T14:25:20;5.13;;;3.72;;
36715;SDS011;22699;51.034;3.730;2022-11-20T14:27:50;7.55;;;5.88;;
36715;SDS011;22699;51.034;3.730;2022-11-20T14:30:57;4.28;;;3.88;;
36715;SDS011;22699;51.034;3.730;2022-11-20T14:33:26;4.78;;;4.25;;
36715;SDS011;22699;51.034;3.730;2022-11-20T14:36:16;4.05;;;3.25;;
36715;SDS011;22699;51.034;3.730;2022-11-20T14:38:46;3.70;;;3.40;;
36715;SDS011;22699;51.034;3.730;2022-11-20T14:41:31;3.85;;;3.47;;
36715;SDS011;22699;51.034;3.730;2022-11-20T14:43:57;4.20;;;3.63;;
36715;SDS011;22699;51.034;3.730;2022-11-20T14:46:24;5.72;;;3.78;;
36715;SDS011;22699;51.034;3.730;2022-11-20T14:48:52;5.65;;;3.60;;
36715;SDS011;22699;51.034;3.730;2022-11-20T14:54:20;8.85;;;3.63;;
36715;SDS011;22699;51.034;3.730;2022-11-20T14:57:00;9.05;;;4.13;;
36715;SDS011;22699;51.034;3.730;2022-11-20T14:59:48;6.70;;;4.13;;
36715;SDS011;22699;51.034;3.730;2022-11-20T15:02:14;7.95;;;3.95;;
36715;SDS011;22699;51.034;3.730;2022-11-20T15:04:47;12.88;;;5.53;;
36715;SDS011;22699;51.034;3.730;2022-11-20T15:07:27;7.65;;;4.13;;
36715;SDS011;22699;51.034;3.730;2022-11-20T15:10:08;15.90;;;4.85;;
36715;SDS011;22699;51.034;3.730;2022-11-20T15:15:12;8.10;;;3.20;;
36715;SDS011;22699;51.034;3.730;2022-11-20T15:17:53;15.13;;;4.60;;
36715;SDS011;22699;51.034;3.730;2022-11-20T15:20:40;12.00;;;3.60;;
36715;SDS011;22699;51.034;3.730;2022-11-20T15:23:19;10.40;;;3.20;;
36715;SDS011;22699;51.034;3.730;2022-11-20T15:26:05;13.90;;;4.20;;
36715;SDS011;22699;51.034;3.730;2022-11-20T15:28:51;11.25;;;3.75;;
36715;SDS011;22699;51.034;3.730;2022-11-20T15:31:18;12.77;;;3.40;;
36715;SDS011;22699;51.034;3.730;2022-11-20T15:34:02;16.25;;;3.25;;
36715;SDS011;22699;51.034;3.730;2022-11-20T15:36:33;15.43;;;4.90;;
36715;SDS011;22699;51.034;3.730;2022-11-20T15:39:05;17.13;;;6.50;;
36715;SDS011;22699;51.034;3.730;2022-11-20T15:41:34;14.55;;;4.20;;
36715;SDS011;22699;51.034;3.730;2022-11-20T15:44:01;12.63;;;3.83;;
36715;SDS011;22699;51.034;3.730;2022-11-20T15:46:34;23.50;;;5.70;;
36715;SDS011;22699;51.034;3.730;2022-11-20T15:49:12;18.15;;;3.72;;
36715;SDS011;22699;51.034;3.730;2022-11-20T15:51:41;14.00;;;4.05;;
36715;SDS011;22699;51.034;3.730;2022-11-20T15:54:30;11.13;;;2.90;;
36715;SDS011;22699;51.034;3.730;2022-11-20T15:56:55;17.10;;;4.75;;
36715;SDS011;22699;51.034;3.730;2022-11-20T15:59:24;19.73;;;4.40;;
36715;SDS011;22699;51.034;3.730;2022-11-20T16:01:52;11.27;;;4.03;;
36715;SDS011;22699;51.034;3.730;2022-11-20T16:04:26;17.65;;;3.83;;
36715;SDS011;22699;51.034;3.730;2022-11-20T16:06:53;14.70;;;3.25;;
36715;SDS011;22699;51.034;3.730;2022-11-20T16:09:18;24.30;;;7.63;;
36715;SDS011;22699;51.034;3.730;2022-11-20T16:11:48;20.80;;;5.60;;
36715;SDS011;22699;51.034;3.730;2022-11-20T16:14:14;14.88;;;6.43;;
36715;SDS011;22699;51.034;3.730;2022-11-20T16:16:58;11.23;;;3.40;;
36715;SDS011;22699;51.034;3.730;2022-11-20T16:19:28;24.23;;;5.20;;
36715;SDS011;22699;51.034;3.730;2022-11-20T16:21:57;17.63;;;5.82;;
36715;SDS011;22699;51.034;3.730;2022-11-20T16:24:26;19.38;;;8.00;;
36715;SDS011;22699;51.034;3.730;2022-11-20T16:26:56;21.25;;;8.18;;
36715;SDS011;22699;51.034;3.730;2022-11-20T16:29:22;20.63;;;6.10;;
36715;SDS011;22699;51.034;3.730;2022-11-20T16:31:50;20.88;;;4.28;;
36715;SDS011;22699;51.034;3.730;2022-11-20T16:37:08;19.15;;;5.57;;
36715;SDS011;22699;51.034;3.730;2022-11-20T16:39:35;19.13;;;4.10;;
36715;SDS011;22699;51.034;3.730;2022-11-20T16:42:03;16.85;;;3.78;;
36715;SDS011;22699;51.034;3.730;2022-11-20T16:44:28;19.08;;;4.68;;
36715;SDS011;22699;51.034;3.730;2022-11-20T16:46:54;13.77;;;3.97;;
36715;SDS011;22699;51.034;3.730;2022-11-20T16:49:45;15.07;;;3.75;;
36715;SDS011;22699;51.034;3.730;2022-11-20T16:52:11;13.82;;;3.28;;
36715;SDS011;22699;51.034;3.730;2022-11-20T16:54:50;13.32;;;3.40;;
36715;SDS011;22699;51.034;3.730;2022-11-20T16:57:16;19.93;;;5.00;;
36715;SDS011;22699;51.034;3.730;2022-11-20T16:59:42;24.63;;;4.68;;
36715;SDS011;22699;51.034;3.730;2022-11-20T17:02:27;16.75;;;5.00;;
36715;SDS011;22699;51.034;3.730;2022-11-20T17:04:53;26.83;;;5.25;;
36715;SDS011;22699;51.034;3.730;2022-11-20T17:07:19;25.27;;;6.50;;
36715;SDS011;22699;51.034;3.730;2022-11-20T17:09:52;12.40;;;5.93;;
36715;SDS011;22699;51.034;3.730;2022-11-20T17:12:17;20.98;;;6.90;;
36715;SDS011;22699;51.034;3.730;2022-11-20T17:14:49;16.90;;;5.00;;
36715;SDS011;22699;51.034;3.730;2022-11-20T17:17:15;27.60;;;5.55;;
36715;SDS011;22699;51.034;3.730;2022-11-20T17:19:48;22.27;;;6.18;;
36715;SDS011;22699;51.034;3.730;2022-11-20T17:22:20;16.23;;;4.72;;
36715;SDS011;22699;51.034;3.730;2022-11-20T17:24:46;20.20;;;4.35;;
36715;SDS011;22699;51.034;3.730;2022-11-20T17:27:11;17.25;;;3.78;;
36715;SDS011;22699;51.034;3.730;2022-11-20T17:29:38;17.70;;;4.55;;
36715;SDS011;22699;51.034;3.730;2022-11-20T17:32:10;19.35;;;4.63;;
36715;SDS011;22699;51.034;3.730;2022-11-20T17:34:50;17.98;;;5.05;;
36715;SDS011;22699;51.034;3.730;2022-11-20T17:37:17;16.17;;;4.03;;
36715;SDS011;22699;51.034;3.730;2022-11-20T17:42:15;20.15;;;5.65;;
36715;SDS011;22699;51.034;3.730;2022-11-20T17:44:55;15.15;;;5.13;;
36715;SDS011;22699;51.034;3.730;2022-11-20T17:47:25;21.40;;;4.93;;
36715;SDS011;22699;51.034;3.730;2022-11-20T17:49:54;26.20;;;6.35;;
36715;SDS011;22699;51.034;3.730;2022-11-20T17:52:22;20.15;;;5.50;;
36715;SDS011;22699;51.034;3.730;2022-11-20T17:54:47;17.30;;;5.25;;
36715;SDS011;22699;51.034;3.730;2022-11-20T17:57:16;16.60;;;5.43;;
36715;SDS011;22699;51.034;3.730;2022-11-20T18:00:00;15.50;;;5.72;;
36715;SDS011;22699;51.034;3.730;2022-11-20T18:02:27;15.35;;;5.30;;
36715;SDS011;22699;51.034;3.730;2022-11-20T18:04:53;22.08;;;6.45;;
36715;SDS011;22699;51.034;3.730;2022-11-20T18:07:18;17.38;;;6.18;;
36715;SDS011;22699;51.034;3.730;2022-11-20T18:12:20;18.30;;;6.40;;
36715;SDS011;22699;51.034;3.730;2022-11-20T18:14:48;22.00;;;6.18;;
36715;SDS011;22699;51.034;3.730;2022-11-20T18:17:14;14.70;;;6.00;;
36715;SDS011;22699;51.034;3.730;2022-11-20T18:19:43;17.42;;;5.75;;
36715;SDS011;22699;51.034;3.730;2022-11-20T18:22:11;24.15;;;5.63;;
36715;SDS011;22699;51.034;3.730;2022-11-20T18:24:38;25.38;;;5.45;;
36715;SDS011;22699;51.034;3.730;2022-11-20T18:27:04;16.75;;;4.53;;
36715;SDS011;22699;51.034;3.730;2022-11-20T18:29:40;15.52;;;5.13;;
36715;SDS011;22699;51.034;3.730;2022-11-20T18:32:05;22.85;;;6.65;;
36715;SDS011;22699;51.034;3.730;2022-11-20T18:34:31;22.63;;;6.20;;
36715;SDS011;22699;51.034;3.730;2022-11-20T18:36:57;23.48;;;7.13;;
36715;SDS011;22699;51.034;3.730;2022-11-20T18:39:27;21.50;;;6.32;;
36715;SDS011;22699;51.034;3.730;2022-11-20T18:41:54;24.92;;;6.57;;
36715;SDS011;22699;51.034;3.730;2022-11-20T18:44:38;19.98;;;6.00;;
36715;SDS011;22699;51.034;3.730;2022-11-20T18:47:22;18.55;;;6.15;;
36715;SDS011;22699;51.034;3.730;2022-11-20T18:49:51;17.77;;;5.20;;
36715;SDS011;22699;51.034;3.730;2022-11-20T18:52:25;20.52;;;6.10;;
36715;SDS011;22699;51.034;3.730;2022-11-20T18:57:44;20.38;;;6.90;;
36715;SDS011;22699;51.034;3.730;2022-11-20T19:00:10;27.77;;;6.68;;
36715;SDS011;22699;51.034;3.730;2022-11-20T19:02:36;25.33;;;8.77;;
36715;SDS011;22699;51.034;3.730;2022-11-20T19:05:02;19.80;;;6.70;;
36715;SDS011;22699;51.034;3.730;2022-11-20T19:07:51;21.45;;;6.53;;
36715;SDS011;22699;51.034;3.730;2022-11-20T19:10:26;16.77;;;6.13;;
36715;SDS011;22699;51.034;3.730;2022-11-20T19:12:52;19.85;;;5.78;;
36715;SDS011;22699;51.034;3.730;2022-11-20T19:17:56;14.73;;;5.45;;
36715;SDS011;22699;51.034;3.730;2022-11-20T19:23:02;14.70;;;5.30;;
36715;SDS011;22699;51.034;3.730;2022-11-20T19:25:31;17.83;;;5.35;;
36715;SDS011;22699;51.034;3.730;2022-11-20T19:27:58;17.50;;;4.93;;
36715;SDS011;22699;51.034;3.730;2022-11-20T19:30:42;24.95;;;5.68;;
36715;SDS011;22699;51.034;3.730;2022-11-20T19:33:08;14.90;;;4.75;;
36715;SDS011;22699;51.034;3.730;2022-11-20T19:35:33;20.80;;;6.13;;
36715;SDS011;22699;51.034;3.730;2022-11-20T19:38:07;25.23;;;5.82;;
36715;SDS011;22699;51.034;3.730;2022-11-20T19:40:32;21.77;;;5.65;;
36715;SDS011;22699;51.034;3.730;2022-11-20T19:42:58;14.30;;;4.72;;
36715;SDS011;22699;51.034;3.730;2022-11-20T19:45:23;18.42;;;5.28;;
36715;SDS011;22699;51.034;3.730;2022-11-20T19:47:50;14.57;;;4.57;;
36715;SDS011;22699;51.034;3.730;2022-11-20T19:50:16;17.65;;;5.78;;
36715;SDS011;22699;51.034;3.730;2022-11-20T19:55:17;14.43;;;4.57;;
36715;SDS011;22699;51.034;3.730;2022-11-20T19:57:51;20.58;;;5.22;;
36715;SDS011;22699;51.034;3.730;2022-11-20T20:00:23;16.67;;;5.47;;
36715;SDS011;22699;51.034;3.730;2022-11-20T20:05:20;15.18;;;5.40;;
36715;SDS011;22699;51.034;3.730;2022-11-20T20:07:49;17.70;;;5.35;;
36715;SDS011;22699;51.034;3.730;2022-11-20T20:10:21;19.75;;;5.60;;
36715;SDS011;22699;51.034;3.730;2022-11-20T20:12:49;18.30;;;5.80;;
36715;SDS011;22699;51.034;3.730;2022-11-20T20:15:15;16.17;;;5.05;;
36715;SDS011;22699;51.034;3.730;2022-11-20T20:17:46;25.75;;;5.47;;
36715;SDS011;22699;51.034;3.730;2022-11-20T20:20:19;22.45;;;5.63;;
36715;SDS011;22699;51.034;3.730;2022-11-20T20:22:45;14.18;;;4.82;;
36715;SDS011;22699;51.034;3.730;2022-11-20T20:25:11;17.60;;;4.47;;
36715;SDS011;22699;51.034;3.730;2022-11-20T20:27:37;22.85;;;6.55;;
36715;SDS011;22699;51.034;3.730;2022-11-20T20:30:04;16.92;;;5.40;;
36715;SDS011;22699;51.034;3.730;2022-11-20T20:32:31;16.70;;;5.53;;
36715;SDS011;22699;51.034;3.730;2022-11-20T20:34:57;15.45;;;5.68;;
36715;SDS011;22699;51.034;3.730;2022-11-20T20:37:25;20.65;;;5.32;;
36715;SDS011;22699;51.034;3.730;2022-11-20T20:39:54;15.23;;;5.65;;
36715;SDS011;22699;51.034;3.730;2022-11-20T20:42:19;20.00;;;5.55;;
36715;SDS011;22699;51.034;3.730;2022-11-20T20:44:45;19.50;;;5.15;;
36715;SDS011;22699;51.034;3.730;2022-11-20T20:47:37;20.15;;;6.00;;
36715;SDS011;22699;51.034;3.730;2022-11-20T20:50:09;15.57;;;4.95;;
36715;SDS011;22699;51.034;3.730;2022-11-20T20:52:43;21.98;;;5.97;;
36715;SDS011;22699;51.034;3.730;2022-11-20T20:55:11;18.17;;;5.63;;
36715;SDS011;22699;51.034;3.730;2022-11-20T20:57:38;13.98;;;4.10;;
36715;SDS011;22699;51.034;3.730;2022-11-20T21:00:04;21.23;;;5.20;;
36715;SDS011;22699;51.034;3.730;2022-11-20T21:02:43;18.80;;;4.13;;
36715;SDS011;22699;51.034;3.730;2022-11-20T21:05:09;17.55;;;4.28;;
36715;SDS011;22699;51.034;3.730;2022-11-20T21:07:35;23.13;;;4.88;;
36715;SDS011;22699;51.034;3.730;2022-11-20T21:10:21;16.75;;;5.07;;
36715;SDS011;22699;51.034;3.730;2022-11-20T21:12:47;25.23;;;6.53;;
36715;SDS011;22699;51.034;3.730;2022-11-20T21:15:27;20.30;;;7.20;;
36715;SDS011;22699;51.034;3.730;2022-11-20T21:20:24;25.60;;;7.10;;
36715;SDS011;22699;51.034;3.730;2022-11-20T21:23:35;13.95;;;5.50;;
36715;SDS011;22699;51.034;3.730;2022-11-20T21:26:20;22.77;;;5.65;;
36715;SDS011;22699;51.034;3.730;2022-11-20T21:28:49;14.68;;;4.50;;
36715;SDS011;22699;51.034;3.730;2022-11-20T21:36:18;10.85;;;3.42;;
36715;SDS011;22699;51.034;3.730;2022-11-20T21:38:49;5.55;;;2.10;;
36715;SDS011;22699;51.034;3.730;2022-11-20T21:41:31;6.47;;;1.88;;
36715;SDS011;22699;51.034;3.730;2022-11-20T21:46:30;6.50;;;1.65;;
36715;SDS011;22699;51.034;3.730;2022-11-20T21:49:03;5.22;;;1.50;;
36715;SDS011;22699;51.034;3.730;2022-11-20T21:51:30;7.07;;;2.20;;
36715;SDS011;22699;51.034;3.730;2022-11-20T21:54:05;4.45;;;1.55;;
36715;SDS011;22699;51.034;3.730;2022-11-20T21:56:33;3.47;;;1.00;;
36715;SDS011;22699;51.034;3.730;2022-11-20T21:58:59;5.75;;;2.45;;
36715;SDS011;22699;51.034;3.730;2022-11-20T22:01:25;8.90;;;1.70;;
36715;SDS011;22699;51.034;3.730;2022-11-20T22:03:58;4.15;;;1.90;;
36715;SDS011;22699;51.034;3.730;2022-11-20T22:06:47;5.65;;;1.70;;
36715;SDS011;22699;51.034;3.730;2022-11-20T22:09:13;7.78;;;1.48;;
36715;SDS011;22699;51.034;3.730;2022-11-20T22:11:41;10.95;;;1.58;;
36715;SDS011;22699;51.034;3.730;2022-11-20T22:14:08;9.93;;;1.50;;
36715;SDS011;22699;51.034;3.730;2022-11-20T22:17:04;7.75;;;1.80;;
36715;SDS011;22699;51.034;3.730;2022-11-20T22:22:22;5.93;;;1.10;;
36715;SDS011;22699;51.034;3.730;2022-11-20T22:24:50;4.10;;;1.50;;
36715;SDS011;22699;51.034;3.730;2022-11-20T22:27:36;3.95;;;1.20;;
36715;SDS011;22699;51.034;3.730;2022-11-20T22:30:15;8.63;;;1.58;;
36715;SDS011;22699;51.034;3.730;2022-11-20T22:32:46;8.00;;;2.08;;
36715;SDS011;22699;51.034;3.730;2022-11-20T22:35:34;6.07;;;2.05;;
36715;SDS011;22699;51.034;3.730;2022-11-20T22:38:15;9.18;;;2.05;;
36715;SDS011;22699;51.034;3.730;2022-11-20T22:40:48;5.90;;;2.30;;
36715;SDS011;22699;51.034;3.730;2022-11-20T22:46:28;8.98;;;2.25;;
36715;SDS011;22699;51.034;3.730;2022-11-20T22:48:59;8.40;;;3.00;;
36715;SDS011;22699;51.034;3.730;2022-11-20T22:54:01;13.25;;;3.60;;
36715;SDS011;22699;51.034;3.730;2022-11-20T22:56:29;8.05;;;3.05;;
36715;SDS011;22699;51.034;3.730;2022-11-20T22:59:01;10.38;;;3.25;;
36715;SDS011;22699;51.034;3.730;2022-11-20T23:01:31;8.32;;;3.13;;
36715;SDS011;22699;51.034;3.730;2022-11-20T23:04:23;10.07;;;3.75;;
36715;SDS011;22699;51.034;3.730;2022-11-20T23:06:58;14.63;;;3.35;;
36715;SDS011;22699;51.034;3.730;2022-11-20T23:09:24;12.00;;;3.92;;
36715;SDS011;22699;51.034;3.730;2022-11-20T23:12:08;11.52;;;3.63;;
36715;SDS011;22699;51.034;3.730;2022-11-20T23:14:34;10.90;;;3.78;;
36715;SDS011;22699;51.034;3.730;2022-11-20T23:16:59;8.32;;;3.03;;
36715;SDS011;22699;51.034;3.730;2022-11-20T23:19:25;11.82;;;3.28;;
36715;SDS011;22699;51.034;3.730;2022-11-20T23:26:59;14.02;;;4.15;;
36715;SDS011;22699;51.034;3.730;2022-11-20T23:29:32;12.63;;;3.97;;
36715;SDS011;22699;51.034;3.730;2022-11-20T23:32:03;9.70;;;3.72;;
36715;SDS011;22699;51.034;3.730;2022-11-20T23:34:52;10.68;;;3.20;;
36715;SDS011;22699;51.034;3.730;2022-11-20T23:37:18;8.30;;;3.55;;
36715;SDS011;22699;51.034;3.730;2022-11-20T23:39:49;13.02;;;3.08;;
36715;SDS011;22699;51.034;3.730;2022-11-20T23:42:18;10.15;;;3.58;;
36715;SDS011;22699;51.034;3.730;2022-11-20T23:47:12;12.43;;;3.67;;
36715;SDS011;22699;51.034;3.730;2022-11-20T23:49:37;12.60;;;3.60;;
36715;SDS011;22699;51.034;3.730;2022-11-20T23:52:27;12.18;;;3.28;;
36715;SDS011;22699;51.034;3.730;2022-11-20T23:54:53;13.05;;;3.08;;
36715;SDS011;22699;51.034;3.730;2022-11-20T23:57:22;10.63;;;2.92;;
